createdAt,value
2023-01-28T00:01:08.672Z,70.41
2023-01-28T00:03:36.506Z,70.20
2023-01-28T00:06:05.228Z,70.47
2023-01-28T00:08:34.746Z,70.51
2023-01-28T00:11:03.119Z,69.91
2023-01-28T00:13:32.099Z,70.11
2023-01-28T00:16:02.161Z,70.04
2023-01-28T00:18:30.731Z,70.39
2023-01-28T00:20:59.831Z,70.60
2023-01-28T00:23:28.710Z,70.76
2023-01-28T00:25:59.741Z,70.18
2023-01-28T00:28:27.976Z,69.55
2023-01-28T00:30:55.746Z,69.97
2023-01-28T00:33:25.612Z,70.79
2023-01-28T00:35:59.922Z,71.22
2023-01-28T00:38:27.700Z,70.96
2023-01-28T00:40:57.011Z,70.54
2023-01-28T00:43:24.913Z,70.34
2023-01-28T00:45:52.614Z,70.16
2023-01-28T00:48:20.345Z,69.42
2023-01-28T00:50:48.053Z,70.29
2023-01-28T00:53:15.692Z,70.18
2023-01-28T00:55:43.411Z,70.55
2023-01-28T00:58:12.602Z,70.76
2023-01-28T01:00:40.308Z,70.58
2023-01-28T01:03:07.979Z,70.32
2023-01-28T01:05:36.136Z,70.16
2023-01-28T01:08:03.942Z,69.85
2023-01-28T01:10:31.675Z,70.08
2023-01-28T01:12:59.415Z,70.18
2023-01-28T01:15:28.626Z,69.88
2023-01-28T01:17:57.176Z,70.10
2023-01-28T01:20:27.004Z,70.02
2023-01-28T01:22:55.271Z,69.72
2023-01-28T01:25:23.062Z,69.45
2023-01-28T01:27:51.427Z,69.31
2023-01-28T01:30:19.350Z,69.17
2023-01-28T01:32:48.444Z,69.19
2023-01-28T01:35:16.600Z,69.28
2023-01-28T01:37:45.473Z,69.06
2023-01-28T01:40:13.727Z,68.91
2023-01-28T01:42:41.926Z,68.97
2023-01-28T01:45:14.818Z,69.07
2023-01-28T01:47:47.376Z,69.22
2023-01-28T01:50:24.424Z,69.43
2023-01-28T01:52:55.948Z,69.33
2023-01-28T01:55:26.779Z,68.92
2023-01-28T01:57:59.209Z,68.62
2023-01-28T02:00:27.085Z,69.04
2023-01-28T02:02:56.715Z,69.18
2023-01-28T02:05:26.177Z,68.99
2023-01-28T02:08:17.131Z,68.89
2023-01-28T02:10:45.984Z,68.86
2023-01-28T02:13:15.949Z,69.52
2023-01-28T02:15:45.062Z,69.29
2023-01-28T02:18:13.021Z,69.07
2023-01-28T02:21:02.502Z,68.97
2023-01-28T02:23:46.704Z,69.10
2023-01-28T02:26:30.111Z,68.85
2023-01-28T02:29:06.715Z,68.83
2023-01-28T02:31:39.805Z,69.58
2023-01-28T02:34:14.111Z,69.60
2023-01-28T02:36:47.019Z,69.79
2023-01-28T02:39:19.690Z,69.51
2023-01-28T02:41:54.536Z,69.10
2023-01-28T02:44:23.697Z,68.65
2023-01-28T02:47:11.351Z,68.32
2023-01-28T02:49:44.249Z,68.49
2023-01-28T02:52:44.855Z,68.52
2023-01-28T02:55:18.886Z,68.59
2023-01-28T02:57:56.277Z,68.97
2023-01-28T03:00:32.231Z,68.88
2023-01-28T03:03:10.241Z,69.11
2023-01-28T03:06:03.491Z,68.64
2023-01-28T03:08:54.052Z,68.42
2023-01-28T03:11:40.495Z,68.30
2023-01-28T03:14:27.042Z,68.75
2023-01-28T03:17:18.331Z,68.38
2023-01-28T03:20:04.016Z,68.76
2023-01-28T03:22:52.824Z,68.69
2023-01-28T03:25:42.245Z,68.45
2023-01-28T03:28:31.305Z,68.04
2023-01-28T03:31:23.842Z,68.01
2023-01-28T03:34:13.500Z,67.91
2023-01-28T03:36:51.501Z,67.72
2023-01-28T03:39:20.636Z,67.64
2023-01-28T03:41:59.552Z,67.51
2023-01-28T03:44:45.393Z,67.47
2023-01-28T03:47:13.419Z,67.37
2023-01-28T03:49:45.559Z,67.25
2023-01-28T03:52:13.997Z,67.54
2023-01-28T03:54:41.659Z,68.13
2023-01-28T03:57:09.427Z,67.74
2023-01-28T03:59:37.109Z,68.24
2023-01-28T04:02:05.756Z,68.06
2023-01-28T04:04:33.474Z,67.98
2023-01-28T04:07:02.572Z,68.19
2023-01-28T04:09:30.224Z,68.39
2023-01-28T04:11:58.081Z,68.29
2023-01-28T04:14:25.744Z,68.25
2023-01-28T04:16:54.895Z,68.33
2023-01-28T04:19:23.687Z,68.54
2023-01-28T04:21:53.877Z,68.76
2023-01-28T04:24:23.889Z,68.33
2023-01-28T04:26:51.611Z,69.22
2023-01-28T04:29:19.358Z,69.23
2023-01-28T04:31:47.356Z,68.91
2023-01-28T04:34:15.194Z,69.35
2023-01-28T04:36:42.900Z,69.77
2023-01-28T04:39:10.612Z,69.40
2023-01-28T04:41:39.667Z,69.27
2023-01-28T04:44:07.623Z,69.16
2023-01-28T04:46:35.386Z,68.98
2023-01-28T04:49:03.606Z,69.04
2023-01-28T04:51:31.377Z,69.21
2023-01-28T04:53:59.157Z,69.38
2023-01-28T04:56:26.863Z,69.28
2023-01-28T04:58:55.948Z,69.52
2023-01-28T05:01:24.640Z,70.16
2023-01-28T05:03:52.737Z,69.64
2023-01-28T05:06:20.398Z,70.02
2023-01-28T05:08:48.114Z,71.33
2023-01-28T05:11:15.952Z,71.68
2023-01-28T05:13:43.661Z,71.33
2023-01-28T05:16:12.997Z,71.00
2023-01-28T05:18:40.669Z,71.23
2023-01-28T05:21:08.670Z,70.78
2023-01-28T05:23:36.543Z,70.83
2023-01-28T05:26:04.277Z,70.68
2023-01-28T05:28:31.968Z,70.85
2023-01-28T05:31:05.213Z,70.48
2023-01-28T05:33:34.792Z,70.13
2023-01-28T05:36:02.514Z,70.08
2023-01-28T05:38:30.276Z,70.58
2023-01-28T05:40:57.967Z,70.15
2023-01-28T05:43:25.785Z,70.37
2023-01-28T05:45:53.540Z,70.60
2023-01-28T05:48:21.277Z,70.96
2023-01-28T05:50:50.699Z,70.76
2023-01-28T05:53:18.414Z,70.83
2023-01-28T05:55:49.811Z,71.17
2023-01-28T05:58:17.677Z,71.68
2023-01-28T06:00:45.456Z,71.39
2023-01-28T06:03:13.728Z,71.23
2023-01-28T06:05:41.405Z,70.71
2023-01-28T06:08:10.477Z,70.79
2023-01-28T06:10:38.133Z,71.08
2023-01-28T06:13:05.829Z,71.30
2023-01-28T06:15:33.758Z,70.84
2023-01-28T06:18:01.664Z,70.42
2023-01-28T06:20:29.395Z,70.39
2023-01-28T06:22:57.567Z,70.19
2023-01-28T06:25:26.726Z,69.95
2023-01-28T06:27:54.420Z,70.20
2023-01-28T06:30:23.614Z,69.68
2023-01-28T06:32:55.711Z,69.04
2023-01-28T06:35:23.651Z,69.38
2023-01-28T06:37:52.493Z,69.19
2023-01-28T06:40:21.978Z,69.04
2023-01-28T06:42:51.106Z,68.90
2023-01-28T06:45:18.832Z,68.72
2023-01-28T06:47:46.633Z,68.76
2023-01-28T06:50:14.594Z,68.63
2023-01-28T06:52:42.851Z,68.17
2023-01-28T06:55:10.894Z,67.95
2023-01-28T06:57:39.795Z,67.80
2023-01-28T07:00:13.619Z,67.93
2023-01-28T07:02:41.653Z,67.93
2023-01-28T07:05:09.986Z,67.91
2023-01-28T07:07:42.027Z,68.00
2023-01-28T07:10:11.249Z,67.86
2023-01-28T07:12:38.981Z,67.93
2023-01-28T07:15:13.161Z,67.23
2023-01-28T07:17:41.447Z,67.67
2023-01-28T07:20:11.983Z,67.38
2023-01-28T07:22:41.429Z,67.51
2023-01-28T07:25:10.333Z,66.99
2023-01-28T07:27:38.027Z,66.85
2023-01-28T07:30:06.877Z,67.05
2023-01-28T07:32:35.876Z,67.29
2023-01-28T07:35:03.535Z,67.86
2023-01-28T07:37:31.345Z,67.61
2023-01-28T07:39:59.117Z,67.63
2023-01-28T07:42:26.824Z,67.72
2023-01-28T07:44:54.627Z,67.38
2023-01-28T07:47:22.454Z,66.86
2023-01-28T07:49:51.596Z,66.65
2023-01-28T07:52:19.424Z,67.06
2023-01-28T07:54:47.199Z,66.89
2023-01-28T07:57:14.889Z,66.79
2023-01-28T07:59:42.624Z,66.27
2023-01-28T08:02:13.340Z,66.32
2023-01-28T08:04:41.537Z,66.07
2023-01-28T08:07:10.945Z,66.10
2023-01-28T08:09:38.594Z,66.04
2023-01-28T08:12:06.425Z,65.86
2023-01-28T08:14:34.128Z,65.80
2023-01-28T08:17:01.890Z,65.96
2023-01-28T08:19:29.627Z,66.08
2023-01-28T08:21:57.306Z,65.88
2023-01-28T08:24:26.440Z,65.58
2023-01-28T08:26:54.081Z,65.17
2023-01-28T08:29:21.930Z,64.58
2023-01-28T08:31:49.753Z,65.13
2023-01-28T08:34:17.482Z,64.58
2023-01-28T08:36:45.518Z,65.01
2023-01-28T08:39:13.189Z,65.30
2023-01-28T08:41:42.339Z,65.05
2023-01-28T08:44:10.127Z,64.14
2023-01-28T08:46:37.950Z,63.96
2023-01-28T08:49:05.860Z,64.80
2023-01-28T08:51:33.609Z,64.95
2023-01-28T08:54:02.145Z,64.86
2023-01-28T08:56:30.499Z,65.10
2023-01-28T08:58:59.634Z,64.51
2023-01-28T09:01:29.349Z,64.80
2023-01-28T09:03:57.229Z,64.39
2023-01-28T09:06:25.067Z,63.68
2023-01-28T09:08:52.804Z,63.98
2023-01-28T09:11:20.492Z,63.53
2023-01-28T09:13:48.226Z,64.19
2023-01-28T09:16:17.300Z,63.74
2023-01-28T09:18:45.157Z,62.94
2023-01-28T09:21:12.930Z,62.87
2023-01-28T09:23:40.826Z,62.75
2023-01-28T09:26:10.286Z,61.89
2023-01-28T09:28:38.522Z,62.05
2023-01-28T09:31:08.530Z,62.16
2023-01-28T09:33:38.871Z,62.04
2023-01-28T09:36:09.310Z,62.07
2023-01-28T09:38:37.119Z,61.67
2023-01-28T09:41:20.398Z,61.63
2023-01-28T09:44:11.103Z,60.79
2023-01-28T09:46:39.402Z,61.38
2023-01-28T09:49:22.197Z,61.26
2023-01-28T09:51:53.588Z,61.17
2023-01-28T09:54:41.362Z,61.22
2023-01-28T09:57:15.032Z,61.19
2023-01-28T09:59:42.724Z,61.41
2023-01-28T10:02:32.999Z,60.37
2023-01-28T10:05:17.410Z,60.47
2023-01-28T10:07:56.192Z,61.23
2023-01-28T10:10:29.456Z,61.75
2023-01-28T10:13:12.860Z,60.69
2023-01-28T10:15:58.004Z,60.84
2023-01-28T10:18:36.860Z,61.22
2023-01-28T10:21:13.460Z,61.69
2023-01-28T10:23:49.511Z,60.57
2023-01-28T10:26:24.801Z,60.80
2023-01-28T10:28:57.321Z,60.55
2023-01-28T10:31:32.512Z,60.39
2023-01-28T10:34:01.330Z,60.83
2023-01-28T10:36:31.163Z,60.95
2023-01-28T10:38:59.361Z,60.76
2023-01-28T10:41:27.411Z,60.47
2023-01-28T10:43:55.074Z,59.83
2023-01-28T10:46:27.756Z,60.10
2023-01-28T10:49:01.047Z,60.42
2023-01-28T10:51:35.250Z,60.52
2023-01-28T10:54:03.220Z,60.07
2023-01-28T10:56:33.125Z,59.80
2023-01-28T10:59:04.645Z,59.00
2023-01-28T11:01:45.175Z,59.15
2023-01-28T11:04:20.190Z,60.15
2023-01-28T11:07:01.973Z,59.61
2023-01-28T11:09:31.498Z,59.73
2023-01-28T11:12:00.106Z,60.20
2023-01-28T11:14:28.894Z,59.57
2023-01-28T11:16:59.296Z,59.49
2023-01-28T11:19:35.033Z,59.55
2023-01-28T11:22:04.565Z,59.49
2023-01-28T11:24:34.973Z,59.50
2023-01-28T11:27:14.530Z,58.69
2023-01-28T11:29:42.912Z,58.74
2023-01-28T11:32:20.008Z,58.30
2023-01-28T11:34:52.565Z,58.18
2023-01-28T11:37:25.043Z,58.28
2023-01-28T11:40:02.849Z,58.78
2023-01-28T11:42:32.206Z,59.38
2023-01-28T11:44:59.953Z,58.95
2023-01-28T11:47:48.194Z,58.98
2023-01-28T11:50:24.028Z,58.56
2023-01-28T11:53:10.547Z,58.12
2023-01-28T11:55:55.466Z,58.45
2023-01-28T11:58:29.803Z,58.60
2023-01-28T12:01:04.095Z,58.04
2023-01-28T12:03:51.546Z,58.18
2023-01-28T12:06:41.777Z,57.89
2023-01-28T12:09:21.198Z,58.32
2023-01-28T12:12:13.129Z,58.40
2023-01-28T12:15:00.813Z,57.68
2023-01-28T12:17:41.935Z,56.93
2023-01-28T12:20:19.977Z,57.04
2023-01-28T12:23:20.189Z,56.89
2023-01-28T12:26:06.253Z,57.10
2023-01-28T12:28:45.672Z,56.88
2023-01-28T12:31:37.575Z,56.57
2023-01-28T12:35:04.130Z,57.00
2023-01-28T12:37:44.752Z,56.94
2023-01-28T12:40:26.640Z,56.83
2023-01-28T12:43:02.697Z,57.27
2023-01-28T12:45:38.793Z,57.25
2023-01-28T12:48:11.331Z,57.64
2023-01-28T12:50:45.196Z,57.45
2023-01-28T12:53:23.453Z,57.76
2023-01-28T12:55:59.555Z,57.56
2023-01-28T12:58:38.326Z,57.62
2023-01-28T13:01:12.076Z,57.86
2023-01-28T13:03:44.727Z,57.64
2023-01-28T13:06:18.195Z,57.75
2023-01-28T13:08:46.167Z,58.08
2023-01-28T13:11:18.143Z,58.09
2023-01-28T13:13:48.176Z,57.95
2023-01-28T13:16:17.881Z,57.79
2023-01-28T13:18:47.366Z,57.89
2023-01-28T13:21:18.960Z,57.75
2023-01-28T13:23:48.426Z,58.50
2023-01-28T13:26:37.508Z,59.15
2023-01-28T13:29:20.112Z,58.15
2023-01-28T13:31:52.154Z,58.21
2023-01-28T13:34:37.970Z,57.82
2023-01-28T13:37:22.415Z,57.96
2023-01-28T13:39:53.295Z,57.66
2023-01-28T13:42:27.155Z,58.52
2023-01-28T13:44:57.203Z,59.13
2023-01-28T13:47:31.356Z,58.84
2023-01-28T13:50:03.763Z,58.61
2023-01-28T13:52:33.889Z,58.46
2023-01-28T13:55:05.039Z,58.58
2023-01-28T13:58:14.231Z,57.86
2023-01-28T14:01:01.722Z,58.03
2023-01-28T14:03:55.907Z,58.17
2023-01-28T14:07:02.444Z,57.79
2023-01-28T14:09:54.308Z,58.42
2023-01-28T14:12:59.100Z,59.05
2023-01-28T14:15:51.866Z,58.73
2023-01-28T14:18:27.272Z,58.39
2023-01-28T14:20:57.267Z,58.03
2023-01-28T14:23:26.829Z,57.90
2023-01-28T14:26:06.820Z,57.45
2023-01-28T14:28:47.353Z,57.28
2023-01-28T14:31:23.147Z,57.43
2023-01-28T14:33:51.016Z,57.56
2023-01-28T14:36:18.859Z,57.50
2023-01-28T14:38:48.144Z,57.12
2023-01-28T14:41:24.584Z,56.97
2023-01-28T14:43:54.099Z,57.20
2023-01-28T14:46:32.337Z,57.68
2023-01-28T14:49:16.436Z,57.63
2023-01-28T14:52:06.625Z,57.87
2023-01-28T14:54:47.962Z,57.52
2023-01-28T14:57:45.729Z,58.03
2023-01-28T15:00:24.228Z,58.63
2023-01-28T15:02:53.500Z,58.33
2023-01-28T15:05:23.816Z,57.63
2023-01-28T15:07:52.048Z,56.89
2023-01-28T15:10:22.264Z,56.05
2023-01-28T15:12:55.040Z,56.14
2023-01-28T15:15:29.943Z,56.37
2023-01-28T15:18:03.459Z,56.19
2023-01-28T15:20:32.023Z,56.50
2023-01-28T15:23:02.204Z,56.16
2023-01-28T15:25:31.211Z,56.06
2023-01-28T15:28:01.863Z,55.50
2023-01-28T15:30:31.398Z,55.91
2023-01-28T15:33:02.856Z,55.94
2023-01-28T15:35:31.273Z,55.52
2023-01-28T15:37:59.552Z,55.57
2023-01-28T15:40:27.661Z,55.07
2023-01-28T15:42:58.385Z,54.95
2023-01-28T15:45:28.996Z,54.42
2023-01-28T15:48:09.216Z,54.25
2023-01-28T15:50:38.323Z,54.50
2023-01-28T15:53:11.103Z,55.08
2023-01-28T15:55:41.506Z,55.46
2023-01-28T15:58:20.773Z,54.82
2023-01-28T16:00:49.214Z,54.52
2023-01-28T16:03:23.372Z,54.59
2023-01-28T16:06:01.231Z,54.16
2023-01-28T16:08:33.327Z,53.68
2023-01-28T16:11:01.243Z,52.87
2023-01-28T16:13:32.438Z,52.63
2023-01-28T16:16:02.210Z,52.48
2023-01-28T16:18:40.785Z,53.06
2023-01-28T16:21:12.968Z,52.84
2023-01-28T16:23:41.105Z,52.44
2023-01-28T16:26:22.608Z,52.29
2023-01-28T16:28:50.326Z,52.31
2023-01-28T16:31:18.404Z,51.86
2023-01-28T16:33:47.741Z,51.71
2023-01-28T16:36:16.926Z,51.64
2023-01-28T16:38:44.741Z,52.04
2023-01-28T16:41:25.943Z,51.71
2023-01-28T16:43:53.755Z,51.34
2023-01-28T16:46:21.859Z,51.18
2023-01-28T16:48:50.922Z,50.88
2023-01-28T16:51:19.447Z,50.11
2023-01-28T16:53:48.689Z,50.52
2023-01-28T16:56:35.843Z,50.95
2023-01-28T16:59:03.794Z,51.67
2023-01-28T17:01:31.532Z,51.05
2023-01-28T17:04:00.646Z,51.34
2023-01-28T17:06:28.337Z,51.25
2023-01-28T17:08:56.057Z,51.30
2023-01-28T17:11:23.704Z,51.07
2023-01-28T17:13:51.337Z,50.82
2023-01-28T17:16:19.057Z,50.79
2023-01-28T17:18:50.934Z,50.41
2023-01-28T17:21:20.235Z,50.34
2023-01-28T17:23:48.321Z,50.67
2023-01-28T17:26:17.310Z,50.77
2023-01-28T17:28:45.539Z,50.56
2023-01-28T17:31:15.136Z,50.40
2023-01-28T17:33:43.057Z,50.49
2023-01-28T17:36:11.305Z,50.39
2023-01-28T17:38:40.382Z,50.39
2023-01-28T17:41:09.906Z,50.58
2023-01-28T17:43:37.605Z,50.49
2023-01-28T17:46:11.952Z,50.77
2023-01-28T17:48:39.870Z,50.88
2023-01-28T17:51:07.884Z,51.02
2023-01-28T17:53:35.641Z,50.72
2023-01-28T17:56:05.280Z,50.72
2023-01-28T17:58:33.005Z,50.50
2023-01-28T18:01:00.787Z,50.87
2023-01-28T18:03:28.571Z,50.81
2023-01-28T18:06:00.320Z,51.11
2023-01-28T18:08:28.078Z,50.82
2023-01-28T18:10:56.178Z,50.61
2023-01-28T18:13:25.299Z,51.02
2023-01-28T18:15:53.012Z,51.49
2023-01-28T18:18:20.702Z,51.50
2023-01-28T18:20:57.896Z,51.53
2023-01-28T18:23:25.778Z,51.63
2023-01-28T18:25:56.832Z,51.35
2023-01-28T18:28:26.231Z,51.23
2023-01-28T18:30:54.257Z,50.92
2023-01-28T18:33:24.233Z,51.15
2023-01-28T18:35:52.067Z,51.41
2023-01-28T18:38:19.807Z,51.24
2023-01-28T18:40:47.945Z,51.39
2023-01-28T18:43:15.746Z,51.24
2023-01-28T18:45:45.787Z,51.82
2023-01-28T18:48:13.531Z,51.88
2023-01-28T18:50:41.314Z,52.03
2023-01-28T18:53:09.022Z,51.79
2023-01-28T18:55:36.705Z,51.52
2023-01-28T18:58:04.391Z,51.64
2023-01-28T19:00:32.055Z,51.14
2023-01-28T19:03:02.243Z,50.96
2023-01-28T19:05:30.558Z,50.75
2023-01-28T19:07:58.739Z,50.93
2023-01-28T19:10:26.379Z,50.95
2023-01-28T19:12:56.390Z,51.90
2023-01-28T19:15:24.306Z,51.90
2023-01-28T19:17:51.971Z,52.25
2023-01-28T19:20:21.080Z,52.03
2023-01-28T19:22:48.903Z,51.76
2023-01-28T19:25:17.338Z,51.22
2023-01-28T19:27:45.254Z,50.97
2023-01-28T19:30:13.627Z,50.99
2023-01-28T19:32:41.266Z,50.89
2023-01-28T19:35:09.125Z,51.09
2023-01-28T19:37:38.176Z,51.07
2023-01-28T19:40:07.214Z,51.32
2023-01-28T19:42:34.988Z,51.53
2023-01-28T19:45:04.081Z,51.58
2023-01-28T19:47:31.904Z,51.15
2023-01-28T19:49:59.803Z,51.17
2023-01-28T19:52:27.494Z,51.25
2023-01-28T19:54:56.508Z,51.68
2023-01-28T19:57:24.308Z,51.43
2023-01-28T19:59:52.051Z,50.91
2023-01-28T20:02:19.779Z,50.85
2023-01-28T20:05:00.335Z,50.93
2023-01-28T20:07:28.788Z,51.22
2023-01-28T20:09:58.036Z,51.39
2023-01-28T20:12:25.731Z,50.99
2023-01-28T20:14:53.381Z,51.15
2023-01-28T20:17:21.723Z,51.39
2023-01-28T20:19:49.811Z,50.95
2023-01-28T20:22:20.528Z,51.17
2023-01-28T20:24:49.090Z,51.20
2023-01-28T20:27:18.133Z,50.85
2023-01-28T20:29:45.769Z,51.04
2023-01-28T20:32:18.336Z,51.17
2023-01-28T20:34:47.913Z,50.93
2023-01-28T20:37:15.655Z,50.69
2023-01-28T20:39:43.700Z,50.72
2023-01-28T20:42:13.208Z,50.54
2023-01-28T20:44:42.344Z,50.65
2023-01-28T20:47:09.987Z,50.56
2023-01-28T20:49:37.649Z,50.85
2023-01-28T20:52:05.674Z,50.53
2023-01-28T20:54:33.419Z,50.80
2023-01-28T20:57:01.129Z,50.70
2023-01-28T20:59:29.225Z,50.35
2023-01-28T21:01:58.259Z,50.72
2023-01-28T21:04:25.937Z,50.47
2023-01-28T21:06:53.669Z,50.41
2023-01-28T21:09:22.654Z,50.67
2023-01-28T21:11:50.327Z,50.67
2023-01-28T21:14:18.469Z,50.56
2023-01-28T21:16:47.228Z,50.46
2023-01-28T21:19:16.651Z,50.38
2023-01-28T21:21:45.218Z,50.60
2023-01-28T21:24:13.121Z,50.80
2023-01-28T21:26:40.863Z,51.29
2023-01-28T21:29:09.282Z,51.30
2023-01-28T21:31:37.106Z,51.17
2023-01-28T21:34:04.803Z,50.96
2023-01-28T21:36:34.420Z,50.97
2023-01-28T21:39:03.350Z,51.61
2023-01-28T21:41:32.230Z,51.44
2023-01-28T21:44:00.401Z,51.19
2023-01-28T21:46:30.095Z,51.48
2023-01-28T21:48:59.155Z,51.00
2023-01-28T21:51:36.573Z,51.36
2023-01-28T21:54:06.991Z,51.35
2023-01-28T21:56:34.675Z,51.07
2023-01-28T21:59:20.114Z,50.91
2023-01-28T22:01:47.967Z,51.26
2023-01-28T22:04:16.526Z,51.48
2023-01-28T22:06:45.210Z,51.49
2023-01-28T22:09:14.584Z,51.34
2023-01-28T22:11:43.506Z,51.67
2023-01-28T22:14:11.660Z,51.08
2023-01-28T22:16:39.668Z,51.08
2023-01-28T22:19:07.594Z,50.99
2023-01-28T22:21:41.070Z,50.97
2023-01-28T22:24:11.638Z,50.84
2023-01-28T22:26:41.527Z,50.62
2023-01-28T22:29:09.531Z,50.57
2023-01-28T22:31:38.191Z,51.00
2023-01-28T22:34:06.934Z,51.83
2023-01-28T22:36:35.120Z,51.85
2023-01-28T22:39:07.177Z,51.85
2023-01-28T22:41:35.095Z,51.86
2023-01-28T22:44:04.394Z,51.56
2023-01-28T22:46:33.519Z,51.63
2023-01-28T22:49:01.759Z,51.22
2023-01-28T22:51:31.527Z,51.25
2023-01-28T22:53:59.342Z,51.73
2023-01-28T22:56:29.207Z,51.60
2023-01-28T22:58:57.620Z,51.80
2023-01-28T23:01:27.257Z,51.46
2023-01-28T23:03:56.060Z,51.17
2023-01-28T23:06:25.677Z,51.08
2023-01-28T23:08:54.245Z,50.76
2023-01-28T23:11:28.695Z,50.95
2023-01-28T23:14:15.719Z,50.62
2023-01-28T23:16:59.033Z,50.97
2023-01-28T23:19:45.004Z,51.15
2023-01-28T23:22:32.300Z,51.47
2023-01-28T23:25:00.101Z,51.72
2023-01-28T23:27:27.833Z,51.81
2023-01-28T23:29:55.573Z,51.82
2023-01-28T23:32:24.608Z,51.88
2023-01-28T23:34:52.341Z,51.05
2023-01-28T23:37:28.069Z,51.07
2023-01-28T23:39:55.762Z,51.35
2023-01-28T23:42:23.577Z,51.28
2023-01-28T23:44:51.253Z,50.45
2023-01-28T23:47:19.154Z,50.50
2023-01-28T23:49:48.219Z,50.64
2023-01-28T23:52:15.909Z,51.19
2023-01-28T23:54:43.606Z,51.08
2023-01-28T23:57:11.367Z,51.18
2023-01-28T23:59:39.046Z,51.46
